Time;durP1;ratioP1;P1;durP2;ratioP2;P2;SDS_P1;SDS_P2;PMS_P1;PMS_P2;Temp;Humidity;BMP_temperature;BMP_pressure;BME280_temperature;BME280_humidity;BME280_pressure;Samples;Min_cycle;Max_cycle;Signal;HPM_P1;HPM_P2
2023/09/10 00:00:16;;;;;;;4.18;2.42;;;;;;;15.85;52.78;63639.00;4816415;29;20437;-74
2023/09/10 00:02:43;;;;;;;2.72;2.50;;;;;;;15.62;53.80;63614.53;4816343;29;20243;-76
2023/09/10 00:05:10;;;;;;;3.70;2.70;;;;;;;15.60;54.04;63612.97;4816122;29;20233;-76
2023/09/10 00:07:37;;;;;;;6.88;2.72;;;;;;;15.55;54.82;63610.34;4813500;29;20549;-75
2023/09/10 00:10:04;;;;;;;3.92;2.60;;;;;;;15.53;55.18;63608.28;4812805;29;20584;-74
2023/09/10 00:12:31;;;;;;;3.42;3.08;;;;;;;15.49;55.33;63599.00;4797815;30;20255;-75
2023/09/10 00:14:58;;;;;;;6.65;3.00;;;;;;;15.44;56.29;63598.41;4801262;29;20282;-76
2023/09/10 00:17:28;;;;;;;3.65;2.20;;;;;;;15.42;57.22;63596.31;4811126;29;20210;-75
2023/09/10 00:19:55;;;;;;;3.55;2.70;;;;;;;15.37;57.42;63589.06;4815139;29;20446;-75
2023/09/10 00:22:21;;;;;;;4.82;3.50;;;;;;;15.30;57.06;63579.22;4797639;30;20351;-75
2023/09/10 00:24:49;;;;;;;5.45;2.97;;;;;;;15.28;57.33;63574.06;4808110;29;20268;-75
2023/09/10 00:27:16;;;;;;;3.90;3.53;;;;;;;15.26;57.80;63580.19;4814674;29;20241;-75
2023/09/10 00:29:43;;;;;;;6.43;3.60;;;;;;;15.25;58.11;63571.47;4819087;29;20234;-75
2023/09/10 00:32:10;;;;;;;4.03;3.03;;;;;;;15.28;59.06;63579.19;4819596;29;20515;-76
2023/09/10 00:34:38;;;;;;;4.35;3.20;;;;;;;15.20;59.35;63566.28;4817973;29;20541;-75
2023/09/10 00:37:07;;;;;;;4.65;2.63;;;;;;;15.26;57.87;63580.19;4818468;29;20209;-75
2023/09/10 00:39:34;;;;;;;2.97;2.30;;;;;;;15.23;58.09;63571.41;4819627;29;20243;-76
2023/09/10 00:42:01;;;;;;;2.65;2.45;;;;;;;15.22;57.78;63572.94;4819137;29;20220;-74
2023/09/10 00:44:27;;;;;;;3.90;2.47;;;;;;;15.19;59.22;63570.34;4815137;29;20254;-75
2023/09/10 00:46:55;;;;;;;2.28;2.13;;;;;;;15.06;59.70;63549.66;4819817;29;20210;-75
2023/09/10 00:49:22;;;;;;;2.28;1.90;;;;;;;15.04;57.96;63554.75;4814248;29;20274;-75
2023/09/10 00:51:51;;;;;;;2.33;2.03;;;;;;;15.01;57.76;63552.16;4801857;29;20214;-75
2023/09/10 00:54:19;;;;;;;2.20;2.00;;;;;;;15.02;57.42;63550.13;4808061;29;20209;-74
2023/09/10 00:56:46;;;;;;;3.33;2.08;;;;;;;15.00;56.52;63551.13;4816691;29;20271;-74
2023/09/10 00:59:13;;;;;;;2.00;1.90;;;;;;;14.97;56.24;63547.50;4808242;29;20214;-75
2023/09/10 01:01:40;;;;;;;3.38;2.13;;;;;;;14.95;56.50;63543.38;4801498;30;20388;-74
2023/09/10 01:04:07;;;;;;;3.92;1.98;;;;;;;14.93;56.47;63543.84;4807077;29;20218;-75
2023/09/10 01:06:36;;;;;;;3.53;2.03;;;;;;;14.94;56.86;63544.88;4816829;29;20253;-75
2023/09/10 01:09:05;;;;;;;6.93;2.53;;;;;;;14.91;56.85;63536.13;4806581;29;20214;-75
2023/09/10 01:11:43;;;;;;;2.42;2.20;;;;;;;14.82;57.58;63534.97;4819011;29;20261;-75
2023/09/10 01:14:17;;;;;;;3.67;2.58;;;;;;;14.82;58.77;63529.84;4817532;29;20229;-76
2023/09/10 01:16:52;;;;;;;2.78;2.58;;;;;;;14.74;58.85;63521.03;4811368;29;20234;-75
2023/09/10 01:19:57;;;;;;;2.47;2.28;;;;;;;14.68;58.98;63515.31;4801384;30;20263;-75
2023/09/10 01:22:31;;;;;;;5.40;2.50;;;;;;;14.68;58.88;63512.25;4809262;29;20463;-75
2023/09/10 01:25:01;;;;;;;4.22;2.63;;;;;;;14.65;59.25;63514.75;4824882;29;20230;-75
2023/09/10 01:27:28;;;;;;;2.70;2.50;;;;;;;14.66;59.32;63515.81;4820894;29;20218;-75
2023/09/10 01:29:55;;;;;;;4.93;2.38;;;;;;;14.66;60.40;63517.84;4810518;29;20285;-75
2023/09/10 01:32:27;;;;;;;4.43;2.35;;;;;;;14.62;60.73;63511.13;4808465;29;20210;-74
2023/09/10 01:35:00;;;;;;;3.55;2.03;;;;;;;14.66;60.85;63515.28;4809622;29;20235;-74
2023/09/10 01:37:33;;;;;;;3.05;1.92;;;;;;;14.62;60.51;63508.56;4800711;30;20222;-75
2023/09/10 01:40:06;;;;;;;6.60;2.10;;;;;;;14.61;62.17;63504.97;4806942;29;20554;-74
2023/09/10 01:42:35;;;;;;;4.07;2.30;;;;;;;14.59;60.36;63511.09;4817247;29;20210;-75
2023/09/10 01:45:03;;;;;;;4.70;2.60;;;;;;;14.60;60.55;63512.13;4807594;29;20278;-75
2023/09/10 01:47:30;;;;;;;2.53;2.33;;;;;;;14.62;59.50;63511.13;4808248;29;20527;-75
2023/09/10 01:49:57;;;;;;;7.47;2.58;;;;;;;14.61;59.63;63505.50;4810403;29;20238;-75
2023/09/10 01:52:24;;;;;;;3.15;1.90;;;;;;;14.64;59.95;63513.72;4812441;29;20289;-75
2023/09/10 01:54:51;;;;;;;3.92;2.17;;;;;;;14.69;58.36;63518.41;4800511;30;20238;-73
2023/09/10 01:57:19;;;;;;;4.15;2.22;;;;;;;14.64;59.11;63513.72;4800467;29;20256;-74
2023/09/10 01:59:46;;;;;;;2.53;2.33;;;;;;;14.64;59.11;63513.19;4814049;29;20245;-75
2023/09/10 02:02:13;;;;;;;2.53;2.33;;;;;;;14.57;60.46;63501.31;4816974;29;20221;-74
2023/09/10 02:04:40;;;;;;;2.75;2.50;;;;;;;14.59;60.10;63510.56;4818379;29;20268;-74
2023/09/10 02:07:07;;;;;;;2.28;2.08;;;;;;;14.54;61.45;63500.78;4816032;29;20209;-75
2023/09/10 02:09:34;;;;;;;2.85;2.47;;;;;;;14.54;61.36;63500.25;4816081;29;20233;-73
2023/09/10 02:12:01;;;;;;;2.95;1.77;;;;;;;14.51;61.90;63502.78;4817935;29;20214;-75
2023/09/10 02:14:30;;;;;;;3.75;2.30;;;;;;;14.40;62.13;63488.28;4808916;29;20459;-75
2023/09/10 02:16:56;;;;;;;2.78;2.58;;;;;;;14.34;62.88;63482.06;4809035;29;20221;-76
2023/09/10 02:19:23;;;;;;;2.65;2.28;;;;;;;14.37;62.11;63487.72;4815218;29;20214;-75
2023/09/10 02:21:52;;;;;;;2.47;2.28;;;;;;;14.26;63.42;63471.16;4813157;29;20238;-76
2023/09/10 02:24:19;;;;;;;2.88;2.60;;;;;;;14.24;63.56;63466.50;4817205;29;20561;-75
2023/09/10 02:26:45;;;;;;;2.63;2.40;;;;;;;14.21;63.85;63469.03;4814407;29;20218;-74
2023/09/10 02:29:12;;;;;;;2.40;2.20;;;;;;;14.17;65.59;63464.38;4817785;29;20265;-75
2023/09/10 02:31:40;;;;;;;3.35;1.90;;;;;;;14.15;66.33;63455.13;4817402;29;20262;-76
2023/09/10 02:34:08;;;;;;;5.18;2.78;;;;;;;14.15;65.96;63464.88;4811698;29;20225;-76
2023/09/10 02:36:35;;;;;;;3.35;2.08;;;;;;;14.10;65.36;63457.63;4811893;29;20294;-75
2023/09/10 02:39:03;;;;;;;4.18;1.98;;;;;;;14.08;66.05;63455.03;4808824;29;20243;-74
2023/09/10 02:41:31;;;;;;;3.90;2.00;;;;;;;14.04;66.12;63448.84;4801358;29;20313;-75
2023/09/10 02:43:58;;;;;;;3.17;2.08;;;;;;;13.99;65.50;63446.22;4806800;29;20214;-76
2023/09/10 02:46:27;;;;;;;2.40;2.20;;;;;;;14.07;66.13;63451.94;4814331;29;20515;-75
2023/09/10 02:48:55;;;;;;;2.97;2.63;;;;;;;14.02;69.25;63451.88;4799883;30;20214;-74
2023/09/10 02:51:22;;;;;;;3.70;1.90;;;;;;;14.02;66.75;63444.19;4799486;29;20258;-74
2023/09/10 02:53:49;;;;;;;1.80;1.67;;;;;;;13.98;65.55;63444.66;4814168;29;20256;-75
2023/09/10 02:56:16;;;;;;;2.78;1.85;;;;;;;13.97;65.04;63446.69;4813276;29;20287;-74
2023/09/10 02:58:43;;;;;;;5.93;2.10;;;;;;;13.96;63.22;63440.53;4817336;29;20218;-75
2023/09/10 03:01:10;;;;;;;2.65;2.20;;;;;;;13.93;63.22;63437.41;4815730;29;20313;-76
2023/09/10 03:03:37;;;;;;;1.65;1.55;;;;;;;13.93;63.56;63439.97;4815020;29;20206;-75
2023/09/10 03:06:11;;;;;;;1.95;1.83;;;;;;;13.99;62.58;63445.69;4804585;29;20238;-75
2023/09/10 03:08:38;;;;;;;3.30;1.92;;;;;;;13.95;64.22;63444.59;4807510;29;20232;-74
2023/09/10 03:11:05;;;;;;;5.30;2.17;;;;;;;13.91;64.64;63433.28;4815246;29;20249;-74
2023/09/10 03:13:32;;;;;;;2.45;1.58;;;;;;;13.84;64.74;63428.59;4814316;29;20214;-75
2023/09/10 03:15:59;;;;;;;3.33;2.15;;;;;;;13.87;66.13;63429.13;4798803;30;20223;-75
2023/09/10 03:18:26;;;;;;;2.30;2.20;;;;;;;13.86;65.88;63432.69;4799358;29;20223;-75
2023/09/10 03:20:55;;;;;;;2.53;2.33;;;;;;;13.83;66.13;63429.59;4811526;29;20302;-73
2023/09/10 03:23:23;;;;;;;2.20;2.00;;;;;;;13.80;66.54;63426.47;4814509;29;20251;-74
2023/09/10 03:25:50;;;;;;;1.92;1.83;;;;;;;13.77;69.10;63421.31;4816950;29;20444;-75
2023/09/10 03:28:17;;;;;;;3.42;2.22;;;;;;;13.83;67.99;63432.69;4813433;29;20237;-75
2023/09/10 03:30:43;;;;;;;2.40;2.20;;;;;;;13.71;68.47;63419.69;4814205;29;20230;-75
2023/09/10 03:33:10;;;;;;;6.65;2.63;;;;;;;13.68;68.25;63409.41;4805540;29;20420;-75
2023/09/10 03:35:37;;;;;;;3.78;2.25;;;;;;;13.68;68.97;63416.59;4805589;29;20258;-75
2023/09/10 03:38:04;;;;;;;2.08;1.92;;;;;;;13.66;70.46;63409.91;4815411;29;20262;-74
2023/09/10 03:40:33;;;;;;;5.55;1.88;;;;;;;13.62;69.56;63405.75;4814355;29;20268;-73
2023/09/10 03:43:00;;;;;;;2.25;2.15;;;;;;;13.58;69.22;63401.59;4814813;29;20240;-74
2023/09/10 03:45:27;;;;;;;3.05;2.40;;;;;;;13.64;69.41;63415.50;4804152;30;20238;-74
2023/09/10 03:47:53;;;;;;;6.57;2.53;;;;;;;13.65;69.94;63408.38;4807011;29;20216;-74
2023/09/10 03:50:20;;;;;;;5.75;2.30;;;;;;;13.66;71.83;63409.38;4810503;29;20484;-74
2023/09/10 03:52:47;;;;;;;2.50;2.30;;;;;;;13.58;73.30;63406.72;4803820;29;20222;-75
2023/09/10 03:55:15;;;;;;;5.63;2.30;;;;;;;13.52;75.23;63397.41;4805106;29;20562;-75
2023/09/10 03:57:43;;;;;;;3.95;3.65;;;;;;;13.49;75.82;63394.31;4820278;29;20230;-74
2023/09/10 04:00:11;;;;;;;3.20;2.47;;;;;;;13.44;76.00;63389.63;4805716;29;20235;-75
2023/09/10 04:02:38;;;;;;;4.50;2.70;;;;;;;13.42;76.24;63387.56;4799513;29;20219;-75
2023/09/10 04:05:05;;;;;;;2.65;2.50;;;;;;;13.41;76.31;63383.44;4806639;29;20241;-74
2023/09/10 04:07:32;;;;;;;3.55;3.22;;;;;;;13.47;76.65;63392.22;4811447;29;20214;-74
2023/09/10 04:09:59;;;;;;;4.47;2.58;;;;;;;13.48;76.31;63390.69;4803838;29;20363;-75
2023/09/10 04:12:26;;;;;;;3.10;2.75;;;;;;;13.43;76.67;63385.50;4798305;30;20487;-75
2023/09/10 04:14:55;;;;;;;2.67;2.40;;;;;;;13.53;75.46;63396.41;4802225;29;20240;-76
2023/09/10 04:17:22;;;;;;;4.40;2.83;;;;;;;13.41;75.45;63383.97;4810794;29;20241;-74
2023/09/10 04:19:53;;;;;;;3.80;2.90;;;;;;;13.58;75.95;63401.09;4798624;29;20240;-79
2023/09/10 04:22:20;;;;;;;4.50;2.42;;;;;;;13.63;75.32;63408.84;4799656;29;20253;-74
2023/09/10 04:24:58;;;;;;;3.78;2.63;;;;;;;13.66;75.16;63412.47;4806390;29;20285;-76
2023/09/10 04:27:25;;;;;;;3.22;2.47;;;;;;;13.74;75.14;63417.69;4801667;29;20230;-74
2023/09/10 04:29:54;;;;;;;3.05;2.35;;;;;;;13.75;75.10;63421.81;4799637;29;20292;-74
2023/09/10 04:32:23;;;;;;;2.67;2.47;;;;;;;13.80;75.14;63424.44;4798421;29;20221;-75
2023/09/10 04:34:50;;;;;;;3.42;2.45;;;;;;;13.82;75.09;63421.38;4812298;29;20556;-74
2023/09/10 04:37:16;;;;;;;2.95;2.72;;;;;;;13.87;74.30;63429.13;4799351;29;20222;-73
2023/09/10 04:39:43;;;;;;;2.60;2.40;;;;;;;13.97;72.67;63438.47;4797572;30;20238;-75
2023/09/10 04:42:10;;;;;;;2.83;2.50;;;;;;;14.07;71.62;63454.50;4797099;30;20566;-75
2023/09/10 04:44:37;;;;;;;2.40;2.20;;;;;;;14.14;70.68;63458.69;4809252;29;20208;-74
2023/09/10 04:47:04;;;;;;;3.97;2.25;;;;;;;14.25;69.65;63472.69;4805705;29;20241;-74
2023/09/10 04:49:32;;;;;;;5.32;3.03;;;;;;;14.40;68.28;63488.28;4797567;30;20211;-75
2023/09/10 04:51:59;;;;;;;4.13;2.50;;;;;;;14.50;67.79;63499.19;4799228;29;20209;-75
2023/09/10 04:54:26;;;;;;;2.70;2.50;;;;;;;14.63;67.08;63507.56;4807624;29;20229;-74
2023/09/10 04:56:53;;;;;;;4.25;2.97;;;;;;;14.74;67.37;63526.69;4807066;29;20509;-74
2023/09/10 04:59:20;;;;;;;7.35;2.97;;;;;;;14.79;66.01;63526.22;4813052;29;20225;-76
2023/09/10 05:01:48;;;;;;;3.30;2.53;;;;;;;14.78;65.42;63528.28;4813819;29;20234;-76
2023/09/10 05:04:14;;;;;;;3.03;2.67;;;;;;;14.89;64.38;63534.06;4804262;29;20214;-74
2023/09/10 05:06:43;;;;;;;2.80;2.60;;;;;;;14.97;65.84;63550.59;4799111;30;20238;-74
2023/09/10 05:09:10;;;;;;;3.22;2.75;;;;;;;15.06;66.83;63549.16;4797926;29;20202;-75
2023/09/10 05:11:37;;;;;;;3.83;2.60;;;;;;;15.14;67.60;63564.63;4809772;29;20329;-74
2023/09/10 05:14:04;;;;;;;4.20;2.83;;;;;;;15.24;65.95;63569.91;4798555;29;20256;-74
2023/09/10 05:16:31;;;;;;;3.65;2.42;;;;;;;15.23;68.04;63571.94;4801177;30;20253;-75
2023/09/10 05:18:58;;;;;;;2.33;2.03;;;;;;;15.42;69.12;63594.28;4805755;29;20248;-76
2023/09/10 05:21:25;;;;;;;3.55;2.60;;;;;;;15.46;66.54;63595.34;4813453;29;20306;-75
2023/09/10 05:23:53;;;;;;;2.42;2.22;;;;;;;15.48;63.47;63600.00;4815283;29;20209;-76
2023/09/10 05:26:22;;;;;;;3.28;2.97;;;;;;;15.56;64.94;63603.19;4807605;29;20253;-75
2023/09/10 05:28:49;;;;;;;10.30;3.15;;;;;;;15.64;65.48;63612.00;4814560;29;20356;-76
2023/09/10 05:31:16;;;;;;;2.55;2.35;;;;;;;15.75;65.70;63626.03;4807612;29;20241;-73
2023/09/10 05:33:42;;;;;;;3.00;2.72;;;;;;;15.76;65.54;63624.50;4800752;29;20218;-75
2023/09/10 05:36:10;;;;;;;5.40;2.63;;;;;;;15.75;66.67;63626.03;4800959;29;20430;-75
2023/09/10 05:38:37;;;;;;;3.45;2.55;;;;;;;15.94;66.10;63642.69;4812221;29;20252;-75
2023/09/10 05:41:07;;;;;;;3.17;2.88;;;;;;;15.98;63.62;63649.94;4818744;29;20248;-74
2023/09/10 05:43:34;;;;;;;3.85;2.80;;;;;;;15.98;63.79;63651.97;4814440;29;20385;-75
2023/09/10 05:46:01;;;;;;;2.88;2.58;;;;;;;16.08;63.87;63665.47;4801748;29;20234;-73
2023/09/10 05:48:28;;;;;;;4.10;2.65;;;;;;;16.08;64.21;63660.31;4813587;29;20237;-74
2023/09/10 05:50:58;;;;;;;2.53;2.33;;;;;;;16.22;63.68;63679.00;4819892;29;20237;-75
2023/09/10 05:53:25;;;;;;;3.08;2.40;;;;;;;16.32;60.67;63686.81;4819200;29;20263;-75
2023/09/10 05:55:52;;;;;;;2.20;2.10;;;;;;;16.43;58.06;63693.13;4816937;29;20298;-73
2023/09/10 05:58:21;;;;;;;2.15;2.05;;;;;;;16.50;57.08;63700.94;4816118;29;20217;-74
2023/09/10 06:00:48;;;;;;;4.03;2.20;;;;;;;16.62;56.48;63713.44;4818925;29;20538;-74
2023/09/10 06:03:15;;;;;;;5.18;2.45;;;;;;;16.82;55.71;63736.81;4818989;29;20449;-75
2023/09/10 06:05:42;;;;;;;2.20;2.00;;;;;;;16.87;54.07;63741.50;4815987;29;20245;-75
2023/09/10 06:08:09;;;;;;;2.05;1.95;;;;;;;16.93;54.27;63745.16;4818804;29;20229;-75
2023/09/10 06:10:35;;;;;;;4.50;2.28;;;;;;;17.07;53.39;63765.41;4816711;29;20232;-73
2023/09/10 06:13:02;;;;;;;4.63;2.10;;;;;;;17.14;53.85;63770.13;4816597;29;20514;-77
2023/09/10 06:15:32;;;;;;;3.42;2.13;;;;;;;17.27;52.62;63783.13;4818250;29;20230;-76
2023/09/10 06:17:59;;;;;;;4.35;2.00;;;;;;;17.39;53.22;63795.09;4807218;29;20222;-75
2023/09/10 06:20:26;;;;;;;1.70;1.52;;;;;;;17.48;53.47;63805.00;4812497;29;20229;-75
2023/09/10 06:22:53;;;;;;;4.82;2.15;;;;;;;17.48;52.78;63804.50;4815381;29;20268;-75
2023/09/10 06:25:22;;;;;;;3.90;2.42;;;;;;;17.60;52.24;63817.00;4816830;29;20225;-76
2023/09/10 06:27:49;;;;;;;2.30;2.10;;;;;;;17.70;52.29;63827.94;4820792;29;20250;-74
2023/09/10 06:30:16;;;;;;;2.10;1.90;;;;;;;17.69;51.98;63826.38;4824612;29;20249;-75
2023/09/10 06:32:45;;;;;;;3.10;2.40;;;;;;;17.75;52.18;63835.72;4814219;29;20232;-75
2023/09/10 06:35:12;;;;;;;1.77;1.67;;;;;;;17.74;52.17;63831.56;4817717;29;20447;-75
2023/09/10 06:37:40;;;;;;;3.08;2.30;;;;;;;17.86;52.86;63846.66;4810186;29;20237;-74
2023/09/10 06:40:08;;;;;;;2.15;2.05;;;;;;;18.04;52.24;63868.50;4803946;29;20518;-75
2023/09/10 06:42:35;;;;;;;2.83;2.30;;;;;;;18.13;52.02;63872.72;4812508;29;20245;-75
2023/09/10 06:45:03;;;;;;;2.33;2.13;;;;;;;18.26;51.78;63885.72;4812007;29;20275;-75
2023/09/10 06:47:30;;;;;;;4.07;2.97;;;;;;;18.32;52.08;63892.50;4812122;29;20399;-75
2023/09/10 06:49:59;;;;;;;2.67;2.25;;;;;;;18.51;51.40;63911.28;4805515;29;20240;-74
2023/09/10 06:52:26;;;;;;;3.72;2.22;;;;;;;18.61;51.04;63921.69;4817367;29;20522;-75
2023/09/10 06:54:54;;;;;;;3.08;2.20;;;;;;;18.75;50.49;63941.97;4816810;29;20241;-76
2023/09/10 06:57:21;;;;;;;3.28;1.77;;;;;;;18.80;50.17;63944.59;4808283;29;20210;-78
2023/09/10 06:59:48;;;;;;;2.30;2.10;;;;;;;18.90;50.59;63949.34;4811697;29;20245;-75
2023/09/10 07:02:15;;;;;;;1.85;1.75;;;;;;;19.19;48.92;63985.25;4818688;29;20270;-75
2023/09/10 07:04:47;;;;;;;1.75;1.65;;;;;;;19.37;49.35;64006.66;4815841;29;20232;-75
2023/09/10 07:07:15;;;;;;;1.75;1.65;;;;;;;19.44;49.47;64003.09;4805452;29;20225;-75
2023/09/10 07:09:42;;;;;;;8.68;2.50;;;;;;;19.50;49.53;64015.03;4815054;29;20229;-75
2023/09/10 07:12:10;;;;;;;2.88;1.98;;;;;;;19.58;47.91;64024.91;4800608;29;20225;-75
2023/09/10 07:14:37;;;;;;;5.78;2.47;;;;;;;19.71;46.65;64030.72;4808692;29;20317;-76
2023/09/10 07:17:04;;;;;;;2.38;1.88;;;;;;;19.90;47.17;64058.28;4806678;29;20465;-74
2023/09/10 07:19:31;;;;;;;6.93;2.35;;;;;;;19.95;48.01;64063.53;4813407;29;20507;-75
2023/09/10 07:21:58;;;;;;;2.60;2.08;;;;;;;19.92;46.93;64055.72;4801759;29;20312;-74
2023/09/10 07:24:26;;;;;;;2.20;2.00;;;;;;;19.90;47.12;64058.81;4798733;30;20222;-74
2023/09/10 07:26:53;;;;;;;5.88;2.42;;;;;;;20.03;46.92;64072.38;4808375;29;20409;-76
2023/09/10 07:29:20;;;;;;;2.47;1.90;;;;;;;20.22;47.01;64092.22;4815124;29;20415;-74
2023/09/10 07:31:47;;;;;;;2.92;2.00;;;;;;;20.32;46.89;64102.13;4811248;29;20465;-75
2023/09/10 07:34:13;;;;;;;2.38;2.28;;;;;;;20.46;45.94;64114.69;4798356;29;20224;-75
2023/09/10 07:36:40;;;;;;;3.63;2.00;;;;;;;20.52;45.03;64120.94;4811367;29;20236;-74
2023/09/10 07:39:07;;;;;;;4.28;2.33;;;;;;;20.56;45.64;64125.13;4816261;29;20216;-75
2023/09/10 07:41:36;;;;;;;3.08;2.00;;;;;;;20.78;45.74;64152.75;4816525;29;20249;-76
2023/09/10 07:44:03;;;;;;;3.00;2.00;;;;;;;20.99;45.09;64171.56;4813667;29;20449;-76
2023/09/10 07:46:30;;;;;;;2.60;1.85;;;;;;;21.09;44.40;64179.44;4812323;29;20497;-75
2023/09/10 07:48:57;;;;;;;4.63;2.22;;;;;;;21.05;45.47;64180.97;4798055;30;20236;-76
2023/09/10 07:51:24;;;;;;;2.40;2.17;;;;;;;21.14;45.04;64187.75;4803365;29;20328;-75
2023/09/10 07:53:51;;;;;;;2.00;1.90;;;;;;;21.24;43.70;64198.22;4813076;29;20210;-74
2023/09/10 07:56:18;;;;;;;2.67;1.77;;;;;;;21.22;44.59;64193.00;4814249;29;20233;-76
2023/09/10 07:58:46;;;;;;;2.58;1.83;;;;;;;21.48;44.16;64222.75;4817005;29;20210;-76
2023/09/10 08:01:13;;;;;;;2.00;1.90;;;;;;;21.65;43.56;64238.44;4813221;29;20229;-76
2023/09/10 08:03:42;;;;;;;2.40;2.00;;;;;;;21.80;43.10;64253.59;4804714;29;20296;-77
2023/09/10 08:06:09;;;;;;;3.10;2.38;;;;;;;21.98;42.01;64275.03;4815289;29;20225;-76
2023/09/10 08:08:36;;;;;;;1.88;1.77;;;;;;;22.11;42.58;64291.19;4805509;29;20224;-76
2023/09/10 08:11:03;;;;;;;7.80;2.88;;;;;;;22.17;41.16;64296.94;4798861;29;20241;-75
2023/09/10 08:13:30;;;;;;;5.95;2.70;;;;;;;22.19;41.04;64296.44;4800261;29;20214;-76
2023/09/10 08:15:59;;;;;;;2.60;2.40;;;;;;;22.46;40.97;64322.06;4811077;29;20271;-76
2023/09/10 08:18:26;;;;;;;2.63;2.42;;;;;;;22.71;41.87;64350.81;4809179;29;20213;-77
2023/09/10 08:20:54;;;;;;;3.75;2.78;;;;;;;22.87;40.43;64367.53;4806476;29;20522;-74
2023/09/10 08:23:21;;;;;;;3.30;3.00;;;;;;;22.94;40.67;64380.06;4810270;29;20264;-76
2023/09/10 08:25:51;;;;;;;4.13;2.47;;;;;;;23.05;40.22;64385.84;4810278;29;20234;-75
2023/09/10 08:28:18;;;;;;;3.42;3.22;;;;;;;23.08;40.74;64386.91;4807929;29;20225;-76
2023/09/10 08:30:45;;;;;;;6.38;3.08;;;;;;;23.28;40.40;64413.03;4813261;29;20252;-77
2023/09/10 08:33:13;;;;;;;3.38;3.15;;;;;;;23.45;40.79;64427.72;4814222;29;20220;-76
2023/09/10 08:35:46;;;;;;;3.72;3.03;;;;;;;23.53;39.52;64438.69;4816459;29;20238;-76
2023/09/10 08:38:13;;;;;;;5.10;3.08;;;;;;;23.38;40.73;64420.38;4814577;29;20282;-76
2023/09/10 08:40:46;;;;;;;3.60;3.30;;;;;;;23.42;39.80;64419.88;4810071;29;20459;-73
2023/09/10 08:43:16;;;;;;;5.75;3.65;;;;;;;23.46;38.95;64431.34;4814626;29;20613;-77
2023/09/10 08:45:43;;;;;;;3.55;2.92;;;;;;;23.61;39.40;64439.25;4814234;29;20225;-77
2023/09/10 08:48:11;;;;;;;3.65;3.20;;;;;;;23.75;39.44;64453.88;4800216;29;20222;-77
2023/09/10 08:50:41;;;;;;;10.23;3.70;;;;;;;23.75;39.60;64459.63;4811865;29;20229;-77
2023/09/10 08:53:13;;;;;;;4.55;3.75;;;;;;;23.77;40.11;64463.78;4820885;29;20276;-77
2023/09/10 08:55:42;;;;;;;5.00;3.83;;;;;;;23.91;41.56;64476.38;4813953;29;20273;-79
2023/09/10 08:58:11;;;;;;;4.97;4.60;;;;;;;24.15;41.39;64498.38;4802220;30;20214;-77
2023/09/10 09:00:39;;;;;;;5.25;4.10;;;;;;;24.36;41.44;64522.97;4814134;29;20229;-76
2023/09/10 09:03:06;;;;;;;3.60;3.33;;;;;;;24.52;41.07;64534.50;4817356;29;20239;-75
2023/09/10 09:05:35;;;;;;;4.57;3.42;;;;;;;24.72;40.38;64560.69;4819395;29;20411;-77
2023/09/10 09:08:09;;;;;;;7.20;3.90;;;;;;;24.78;39.18;64563.84;4811812;29;20209;-77
2023/09/10 09:10:37;;;;;;;6.97;3.42;;;;;;;24.85;37.89;64571.19;4817903;29;20447;-75
2023/09/10 09:13:09;;;;;;;4.63;3.45;;;;;;;24.68;37.98;64553.88;4801776;29;20221;-75
2023/09/10 09:15:39;;;;;;;6.85;3.75;;;;;;;24.64;38.80;64551.75;4802584;30;20234;-76
2023/09/10 09:18:09;;;;;;;12.32;5.00;;;;;;;24.77;40.33;64562.78;4815254;29;20212;-75
2023/09/10 09:20:37;;;;;;;5.65;3.47;;;;;;;24.83;39.77;64572.19;4820639;29;20259;-76
2023/09/10 09:23:14;;;;;;;3.28;3.17;;;;;;;24.83;38.47;64574.28;4819378;29;20245;-75
2023/09/10 09:25:41;;;;;;;4.90;3.42;;;;;;;24.46;38.72;64536.03;4801381;29;20257;-75
2023/09/10 09:28:09;;;;;;;3.80;3.60;;;;;;;24.64;39.89;64549.66;4809722;29;20308;-75
2023/09/10 09:30:36;;;;;;;3.88;3.50;;;;;;;24.72;39.45;64563.28;4818088;29;20233;-74
2023/09/10 09:33:04;;;;;;;3.17;2.97;;;;;;;24.48;38.78;64537.59;4806451;29;20277;-75
2023/09/10 09:35:33;;;;;;;4.00;3.40;;;;;;;24.60;38.86;64550.69;4800821;29;20519;-76
2023/09/10 09:38:07;;;;;;;3.40;3.10;;;;;;;24.73;37.76;64563.81;4815052;29;20266;-74
2023/09/10 09:40:35;;;;;;;5.40;3.58;;;;;;;24.48;37.52;64535.00;4818504;29;20560;-75
2023/09/10 09:43:03;;;;;;;3.25;2.92;;;;;;;24.42;37.86;64533.94;4818154;29;20241;-77
2023/09/10 09:45:30;;;;;;;4.80;3.25;;;;;;;24.48;38.48;64532.41;4806150;29;20291;-76
2023/09/10 09:47:57;;;;;;;6.43;3.53;;;;;;;24.67;40.44;64549.69;4817033;29;20277;-77
2023/09/10 09:50:26;;;;;;;3.88;3.55;;;;;;;24.91;39.88;64580.59;4812352;29;20234;-76
2023/09/10 09:52:53;;;;;;;4.50;4.10;;;;;;;25.06;39.25;64601.50;4800752;29;20417;-76
2023/09/10 09:55:22;;;;;;;6.70;3.67;;;;;;;25.14;37.86;64606.75;4808385;29;20247;-75
2023/09/10 09:57:49;;;;;;;3.67;3.38;;;;;;;25.29;39.06;64619.34;4819114;29;20213;-76
2023/09/10 10:00:17;;;;;;;3.80;3.38;;;;;;;25.18;37.40;64608.31;4818028;29;20233;-74
2023/09/10 10:02:46;;;;;;;3.35;3.15;;;;;;;25.24;37.74;64614.63;4818768;29;20245;-76
2023/09/10 10:05:13;;;;;;;5.63;3.78;;;;;;;25.37;37.11;64630.34;4814941;29;20240;-77
2023/09/10 10:07:41;;;;;;;3.60;3.30;;;;;;;25.42;38.40;64630.88;4819128;29;20217;-76
2023/09/10 10:10:15;;;;;;;3.90;3.60;;;;;;;25.40;36.36;64633.50;4819077;29;20369;-75
2023/09/10 10:12:45;;;;;;;3.50;3.30;;;;;;;25.17;36.75;64604.69;4812482;29;20507;-75
2023/09/10 10:15:12;;;;;;;3.58;3.33;;;;;;;25.01;37.01;64590.53;4814879;29;20516;-75
2023/09/10 10:17:43;;;;;;;3.38;3.17;;;;;;;25.02;37.46;64592.09;4818314;29;20451;-77
2023/09/10 10:20:11;;;;;;;6.40;3.75;;;;;;;25.11;38.21;64606.22;4818297;29;20309;-76
2023/09/10 10:22:39;;;;;;;4.75;4.10;;;;;;;25.34;39.15;64625.09;4813780;29;20249;-76
2023/09/10 10:25:09;;;;;;;3.70;3.42;;;;;;;25.52;37.20;64643.44;4818279;29;20260;-76
2023/09/10 10:27:38;;;;;;;4.60;3.20;;;;;;;25.43;35.77;64634.03;4813344;29;20218;-75
2023/09/10 10:30:09;;;;;;;4.28;3.15;;;;;;;25.59;35.94;64648.69;4810822;29;20217;-75
2023/09/10 10:32:40;;;;;;;4.00;3.70;;;;;;;25.64;36.10;64658.63;4809641;29;20210;-76
2023/09/10 10:35:09;;;;;;;4.45;4.00;;;;;;;25.93;36.40;64689.03;4812886;29;20277;-75
2023/09/10 10:37:47;;;;;;;9.38;8.32;;;;;;;26.17;35.87;64714.22;4816263;29;20276;-75
2023/09/10 10:40:17;;;;;;;4.57;3.28;;;;;;;25.91;35.62;64682.25;4805517;29;20381;-77
2023/09/10 10:42:50;;;;;;;3.60;3.38;;;;;;;25.89;35.41;64677.00;4817459;29;20446;-76
2023/09/10 10:45:20;;;;;;;4.32;3.25;;;;;;;26.10;35.86;64704.25;4801079;29;20238;-75
2023/09/10 10:47:48;;;;;;;5.18;4.72;;;;;;;26.26;36.89;64721.03;4799876;30;20249;-77
2023/09/10 10:50:21;;;;;;;5.00;3.70;;;;;;;26.47;34.94;64745.13;4807370;29;20242;-76
2023/09/10 10:52:56;;;;;;;3.92;3.63;;;;;;;26.82;33.74;64779.25;4817440;29;20213;-75
2023/09/10 10:55:24;;;;;;;4.75;3.63;;;;;;;26.97;33.26;64792.38;4818001;29;20229;-76
2023/09/10 10:57:52;;;;;;;7.40;3.63;;;;;;;26.90;33.35;64790.78;4815114;29;20205;-75
2023/09/10 11:00:21;;;;;;;6.07;3.55;;;;;;;26.28;34.00;64722.59;4816027;29;20230;-75
2023/09/10 11:02:50;;;;;;;3.60;3.35;;;;;;;25.69;37.00;64661.78;4813334;29;20242;-76
2023/09/10 11:05:16;;;;;;;4.22;3.70;;;;;;;25.78;35.60;64671.22;4808158;29;20539;-75
2023/09/10 11:07:45;;;;;;;4.18;3.75;;;;;;;25.46;35.31;64639.78;4800825;29;20275;-75
2023/09/10 11:10:44;;;;;;;4.90;3.30;;;;;;;25.37;36.13;64627.75;4817817;29;20233;-76
2023/09/10 11:13:13;;;;;;;6.03;3.60;;;;;;;25.31;37.14;64618.81;4759638;30;20224;-75
2023/09/10 11:16:16;;;;;;;4.35;3.22;;;;;;;25.55;36.24;64646.59;4761212;30;20239;-75
2023/09/10 11:18:44;;;;;;;3.35;3.15;;;;;;;25.74;36.28;64667.03;4799486;29;20227;-75
2023/09/10 11:21:12;;;;;;;4.10;3.67;;;;;;;25.78;35.92;64668.59;4814859;29;20462;-76
2023/09/10 11:23:41;;;;;;;4.72;4.00;;;;;;;25.72;37.15;64667.00;4813867;29;20240;-75
2023/09/10 11:26:30;;;;;;;4.20;3.83;;;;;;;26.01;37.47;64697.41;4814474;29;20938;-77
2023/09/10 11:28:59;;;;;;;4.32;3.97;;;;;;;26.23;37.80;64719.97;4816980;29;20540;-77
2023/09/10 11:31:39;;;;;;;4.43;3.88;;;;;;;26.61;36.46;64760.34;4808810;29;20248;-77
2023/09/10 11:34:40;;;;;;;5.25;3.67;;;;;;;26.82;35.57;64779.78;4798787;30;20213;-76
2023/09/10 11:37:09;;;;;;;3.97;3.67;;;;;;;26.69;35.82;64768.75;4812445;29;20278;-77
2023/09/10 11:39:37;;;;;;;3.67;3.42;;;;;;;26.57;36.04;64747.78;4816637;29;20209;-75